Time;durP1;ratioP1;P1;durP2;ratioP2;P2;SDS_P1;SDS_P2;PMS_P1;PMS_P2;Temp;Humidity;BMP_temperature;BMP_pressure;BME280_temperature;BME280_humidity;BME280_pressure;Samples;Min_cycle;Max_cycle;Signal;HPM_P1;HPM_P2
2022/05/23 00:01:56;;;;;;;11.63;5.00;;;;;;;10.57;56.88;100918.56;5075337;28;20075;-60
2022/05/23 00:04:26;;;;;;;7.28;3.33;;;;;;;10.58;57.01;100920.31;5074912;28;20517;-60
2022/05/23 00:06:56;;;;;;;7.82;4.00;;;;;;;10.59;56.81;100911.66;5076688;28;20056;-59
2022/05/23 00:09:23;;;;;;;8.80;3.92;;;;;;;10.58;57.15;100915.13;5072528;28;20385;-60
2022/05/23 00:11:54;;;;;;;9.55;4.32;;;;;;;10.61;57.25;100914.22;5058896;28;20048;-60
2022/05/23 00:14:22;;;;;;;8.55;4.50;;;;;;;10.58;56.66;100904.75;5058481;28;20053;-60
2022/05/23 00:16:51;;;;;;;7.78;4.18;;;;;;;10.57;57.12;100913.41;5059452;28;20065;-60
2022/05/23 00:19:19;;;;;;;9.63;4.75;;;;;;;10.53;57.36;100916.88;5078674;28;20452;-59
2022/05/23 00:21:53;;;;;;;9.95;4.22;;;;;;;10.50;57.73;100916.88;5078556;28;20108;-60
2022/05/23 00:24:21;;;;;;;8.93;4.15;;;;;;;10.50;57.33;100919.47;5078874;28;20140;-59
2022/05/23 00:26:51;;;;;;;9.27;3.75;;;;;;;10.49;57.92;100920.34;5076957;28;20424;-60
2022/05/23 00:29:19;;;;;;;6.20;3.50;;;;;;;10.48;57.79;100912.59;5078079;28;20445;-59
2022/05/23 00:37:20;;;;;;;7.05;3.78;;;;;;;10.44;58.24;100914.34;5078167;28;20058;-59
2022/05/23 00:39:48;;;;;;;6.55;3.58;;;;;;;10.45;58.04;100908.28;5078788;28;20071;-59
2022/05/23 00:45:10;;;;;;;5.93;3.40;;;;;;;10.39;58.33;100913.47;5060430;28;20191;-60
2022/05/23 00:47:38;;;;;;;7.40;3.15;;;;;;;10.36;58.95;100913.47;5078207;28;20052;-59
2022/05/23 00:50:07;;;;;;;5.72;3.38;;;;;;;10.39;59.17;100911.72;5078173;28;20059;-60
2022/05/23 00:52:43;;;;;;;6.97;3.72;;;;;;;10.41;59.09;100904.84;5078093;28;20136;-60
2022/05/23 00:55:23;;;;;;;7.78;3.90;;;;;;;10.44;59.14;100914.34;5080300;28;20075;-60
2022/05/23 00:57:56;;;;;;;6.72;3.83;;;;;;;10.42;59.56;100913.47;5098224;28;20083;-60
2022/05/23 01:00:32;;;;;;;6.43;3.40;;;;;;;10.39;59.57;100909.13;5073069;28;20048;-59
2022/05/23 01:03:01;;;;;;;;;;;;;;;10.29;59.41;100911.78;5058336;28;20041;-59
2022/05/23 01:05:31;;;;;;;5.95;3.28;;;;;;;10.28;59.55;100899.69;5057622;28;20003;-59
2022/05/23 01:08:04;;;;;;;8.73;4.72;;;;;;;10.27;59.83;100903.16;5057488;28;20045;-59
2022/05/23 01:10:36;;;;;;;7.10;3.97;;;;;;;10.24;60.17;100903.16;5056629;28;20059;-59
2022/05/23 01:13:06;;;;;;;7.90;4.43;;;;;;;10.24;60.50;100900.59;5058395;28;20041;-60
2022/05/23 01:15:34;;;;;;;8.02;3.92;;;;;;;10.27;60.46;100904.03;5077370;28;20466;-59
2022/05/23 01:20:47;;;;;;;7.10;4.18;;;;;;;10.28;60.77;100910.06;5057647;28;20055;-60
2022/05/23 01:23:29;;;;;;;8.48;4.28;;;;;;;10.25;60.64;100916.13;5057659;28;20088;-59
2022/05/23 01:25:59;;;;;;;8.82;4.28;;;;;;;10.26;61.12;100919.56;5057100;28;20064;-60
2022/05/23 01:28:28;;;;;;;10.32;4.53;;;;;;;10.23;61.79;100907.50;5069865;28;20060;-60
2022/05/23 01:30:56;;;;;;;8.55;3.95;;;;;;;10.20;62.05;100916.97;5077820;28;20044;-59
2022/05/23 01:33:25;;;;;;;7.68;4.00;;;;;;;10.22;61.90;100910.09;5077207;28;20549;-59
2022/05/23 01:36:00;;;;;;;9.38;4.18;;;;;;;10.24;62.35;100913.53;5077678;28;20170;-60
2022/05/23 01:38:29;;;;;;;8.25;3.75;;;;;;;10.25;62.17;100912.66;5077113;28;20437;-60
2022/05/23 01:40:59;;;;;;;8.05;3.75;;;;;;;10.26;63.34;100912.66;5077175;28;20040;-60
2022/05/23 01:43:30;;;;;;;9.73;4.82;;;;;;;10.29;63.19;100915.22;5077222;28;20131;-59
2022/05/23 01:46:00;;;;;;;8.52;4.20;;;;;;;10.30;63.04;100914.38;5077196;28;20522;-59
2022/05/23 01:48:31;;;;;;;7.72;3.78;;;;;;;10.31;63.10;100910.03;5076994;28;20056;-59
2022/05/23 01:50:59;;;;;;;8.73;3.83;;;;;;;10.30;62.95;100903.13;5075329;28;20080;-60
2022/05/23 01:53:28;;;;;;;6.68;3.72;;;;;;;10.33;63.25;100916.09;5056982;28;20491;-58
2022/05/23 01:56:02;;;;;;;7.65;3.80;;;;;;;10.33;62.98;100918.69;5073853;28;20058;-59
2022/05/23 02:01:16;;;;;;;7.47;3.90;;;;;;;10.30;63.20;100923.88;5097436;28;20285;-60
2022/05/23 02:03:47;;;;;;;5.95;4.15;;;;;;;10.30;62.82;100913.50;5092490;28;20062;-59
2022/05/23 02:06:16;;;;;;;8.07;4.43;;;;;;;10.30;62.68;100914.38;5096870;28;20056;-60
2022/05/23 02:08:44;;;;;;;9.35;4.00;;;;;;;10.31;63.03;100913.50;5096109;28;20055;-60
2022/05/23 02:11:22;;;;;;;7.28;3.70;;;;;;;10.32;63.09;100911.78;5055495;28;20045;-60
2022/05/23 02:13:51;;;;;;;9.02;4.20;;;;;;;10.30;63.45;100913.50;5066186;28;20052;-60
2022/05/23 02:16:30;;;;;;;8.18;4.45;;;;;;;10.28;63.41;100910.06;5075089;28;20102;-60
2022/05/23 02:18:57;;;;;;;6.75;4.07;;;;;;;10.28;63.29;100904.88;5075099;28;20053;-59
2022/05/23 02:21:26;;;;;;;9.10;4.18;;;;;;;10.27;62.93;100910.94;5076079;28;20072;-61
2022/05/23 02:23:56;;;;;;;6.28;4.32;;;;;;;10.22;63.43;100910.94;5076627;28;20063;-58
2022/05/23 02:26:27;;;;;;;8.88;4.43;;;;;;;10.19;63.68;100910.06;5076171;28;20087;-58
2022/05/23 02:28:55;;;;;;;6.93;4.55;;;;;;;10.18;63.75;100914.38;5075231;28;20059;-60
2022/05/23 02:31:25;;;;;;;7.82;4.03;;;;;;;10.18;64.21;100916.97;5076203;28;20056;-60
2022/05/23 02:33:55;;;;;;;9.07;4.38;;;;;;;10.16;64.00;100916.13;5076020;28;20521;-61
2022/05/23 02:36:24;;;;;;;6.60;4.32;;;;;;;10.12;63.34;100909.25;5075776;28;20143;-61
2022/05/23 02:38:54;;;;;;;7.25;4.28;;;;;;;10.09;64.33;100910.09;5075249;28;20430;-60
2022/05/23 02:41:24;;;;;;;10.00;4.45;;;;;;;10.07;64.38;100911.84;5068017;28;20096;-60
2022/05/23 02:43:56;;;;;;;9.13;4.82;;;;;;;10.07;64.19;100906.66;5055421;28;20049;-59
2022/05/23 02:46:26;;;;;;;10.20;5.05;;;;;;;10.06;64.66;100910.13;5059325;28;20063;-60
2022/05/23 02:48:56;;;;;;;8.90;4.57;;;;;;;10.07;64.62;100911.84;5074931;28;20052;-59
2022/05/23 02:51:32;;;;;;;9.00;5.13;;;;;;;10.06;64.70;100910.13;5056228;28;20053;-59
2022/05/23 02:54:00;;;;;;;;;;;;;;;9.98;64.72;100909.28;5055017;28;20063;-60
2022/05/23 02:56:28;;;;;;;8.82;4.13;;;;;;;10.03;64.51;100907.53;5080431;28;19930;-59
2022/05/23 02:59:07;;;;;;;8.93;4.53;;;;;;;10.08;64.60;100913.56;5092971;28;20056;-59
2022/05/23 03:03:01;;;;;;;7.53;4.07;;;;;;;10.10;64.19;100918.75;5094107;28;20063;-60
2022/05/23 03:04:26;;;;;;;9.73;4.72;;;;;;;10.13;64.51;100911.81;5093012;28;20137;-59
2022/05/23 03:06:57;;;;;;;7.18;4.43;;;;;;;10.16;64.36;100912.69;5088265;28;20164;-59
2022/05/23 03:09:30;;;;;;;10.73;4.70;;;;;;;10.16;64.53;100915.25;5089225;28;20063;-59
2022/05/23 03:12:00;;;;;;;11.20;5.70;;;;;;;10.18;64.19;100903.16;5074582;28;20672;-59
2022/05/23 03:14:43;;;;;;;9.38;4.53;;;;;;;10.24;64.24;100908.34;5058593;28;20056;-60
2022/05/23 03:17:11;;;;;;;8.15;4.30;;;;;;;10.27;64.66;100905.75;5053776;28;20377;-60
2022/05/23 03:19:39;;;;;;;6.78;4.35;;;;;;;10.34;64.33;100905.72;5054744;28;20055;-60
2022/05/23 03:27:37;;;;;;;10.70;4.77;;;;;;;10.56;64.32;100914.25;5073757;28;20062;-58
2022/05/23 03:30:20;;;;;;;9.52;5.40;;;;;;;10.67;64.13;100904.69;5074859;28;20057;-60
2022/05/23 03:32:50;;;;;;;9.73;5.03;;;;;;;10.78;64.86;100911.53;5075354;28;20396;-60
2022/05/23 03:35:20;;;;;;;8.57;4.70;;;;;;;10.91;64.44;100908.84;5076253;28;20107;-60
2022/05/23 03:37:51;;;;;;;7.93;4.15;;;;;;;11.04;64.56;100912.22;5075803;28;20053;-60
2022/05/23 03:40:19;;;;;;;8.23;5.00;;;;;;;11.20;64.19;100908.66;5076845;28;20048;-60
2022/05/23 03:42:47;;;;;;;8.10;4.60;;;;;;;11.30;64.00;100912.88;5080166;28;20065;-60
2022/05/23 03:45:21;;;;;;;9.65;4.97;;;;;;;11.43;63.80;100913.63;5073469;28;20056;-61
2022/05/23 03:47:57;;;;;;;7.90;4.63;;;;;;;11.54;63.55;100911.81;5080310;28;20052;-60
2022/05/23 03:50:29;;;;;;;9.27;5.07;;;;;;;11.68;63.49;100903.88;5079643;28;20060;-61
2022/05/23 03:52:57;;;;;;;7.35;4.32;;;;;;;11.81;63.00;100910.72;5080201;28;20444;-60
2022/05/23 03:55:26;;;;;;;8.70;4.82;;;;;;;11.94;63.05;100904.50;5083816;28;20505;-61
2022/05/23 03:57:55;;;;;;;11.85;5.20;;;;;;;12.11;62.80;100908.66;5099906;28;20119;-61
2022/05/23 04:00:30;;;;;;;9.65;4.78;;;;;;;12.24;62.54;100899.84;5099068;28;20468;-61
2022/05/23 04:03:01;;;;;;;8.73;4.72;;;;;;;12.38;62.13;100907.44;5098006;28;20098;-61
2022/05/23 04:05:29;;;;;;;8.93;4.90;;;;;;;12.55;61.79;100916.78;5097817;28;20048;-59
2022/05/23 04:07:59;;;;;;;8.00;5.10;;;;;;;12.74;61.48;100917.38;5098270;28;20048;-61
2022/05/23 04:10:29;;;;;;;9.68;5.40;;;;;;;12.85;61.15;100915.47;5083848;28;20048;-61
2022/05/23 04:13:02;;;;;;;10.13;5.07;;;;;;;13.03;61.09;100913.50;5075173;28;20493;-61
2022/05/23 04:15:32;;;;;;;7.88;4.25;;;;;;;13.22;60.51;100915.81;5059374;28;20049;-61
2022/05/23 04:18:02;;;;;;;6.95;4.18;;;;;;;13.40;59.92;100909.41;5059246;28;20045;-61
2022/05/23 04:20:32;;;;;;;7.70;4.68;;;;;;;13.59;59.68;100915.19;5059044;28;20084;-61
2022/05/23 04:23:00;;;;;;;7.93;4.50;;;;;;;13.76;59.47;100907.06;5059130;28;20053;-61
2022/05/23 04:25:30;;;;;;;9.63;4.80;;;;;;;13.93;59.03;100910.19;5059132;28;20060;-61
2022/05/23 04:27:56;;;;;;;8.63;4.53;;;;;;;14.09;58.69;100910.78;5067108;28;20045;-61
2022/05/23 04:30:27;;;;;;;7.75;4.78;;;;;;;14.31;58.38;100909.44;5078551;28;20053;-61
2022/05/23 04:35:54;;;;;;;7.70;4.50;;;;;;;14.82;57.72;100904.88;5077958;28;20071;-61
2022/05/23 04:38:22;;;;;;;7.53;4.88;;;;;;;15.04;57.19;100900.00;5076700;28;20473;-61
2022/05/23 04:40:53;;;;;;;7.38;4.10;;;;;;;15.28;56.83;100902.94;5072632;28;20122;-61
2022/05/23 04:43:20;;;;;;;8.23;4.68;;;;;;;15.49;55.87;100891.94;5058032;28;20053;-61
2022/05/23 04:45:49;;;;;;;7.28;4.38;;;;;;;15.68;55.76;100901.06;5056239;28;20053;-61
2022/05/23 04:51:07;;;;;;;6.82;4.28;;;;;;;16.01;54.54;100893.19;5076357;28;20059;-61
2022/05/23 04:53:38;;;;;;;8.77;4.72;;;;;;;16.23;54.45;100896.91;5075836;28;20504;-61
2022/05/23 04:56:09;;;;;;;9.02;5.20;;;;;;;16.42;53.59;100899.84;5086616;28;20076;-61
2022/05/23 04:58:39;;;;;;;7.50;4.63;;;;;;;16.56;53.34;100900.28;5078648;28;20084;-61
2022/05/23 05:01:07;;;;;;;11.63;5.18;;;;;;;16.71;53.11;100899.88;5077216;28;20127;-61
2022/05/23 05:03:43;;;;;;;8.27;4.47;;;;;;;16.89;52.98;100903.66;5077321;28;20075;-61
2022/05/23 05:06:10;;;;;;;8.05;4.65;;;;;;;17.07;52.30;100898.72;5077313;28;20118;-61
2022/05/23 05:08:37;;;;;;;8.82;5.18;;;;;;;17.27;51.91;100893.72;5077613;28;20059;-61
2022/05/23 05:11:06;;;;;;;6.90;4.30;;;;;;;17.48;51.55;100897.38;5058196;28;20401;-61
2022/05/23 05:13:36;;;;;;;6.25;3.78;;;;;;;17.67;51.17;100891.47;5057566;28;20053;-61
2022/05/23 05:16:08;;;;;;;6.57;3.55;;;;;;;17.87;50.75;100890.78;5057361;28;20057;-61
2022/05/23 05:18:38;;;;;;;5.47;4.07;;;;;;;18.09;50.23;100901.34;5057687;28;20088;-61
2022/05/23 05:21:08;;;;;;;5.65;3.88;;;;;;;18.24;49.92;100900.78;5057841;28;20115;-61
2022/05/23 05:23:36;;;;;;;8.20;3.80;;;;;;;18.38;49.50;100907.28;5057962;28;20057;-61
2022/05/23 05:26:05;;;;;;;5.25;3.50;;;;;;;18.48;49.08;100908.66;5057917;28;20068;-61
2022/05/23 05:28:34;;;;;;;6.30;2.97;;;;;;;18.63;48.61;100902.81;5071258;28;20052;-61
2022/05/23 05:31:07;;;;;;;6.63;3.70;;;;;;;18.78;48.15;100899.63;5075776;28;20091;-61
2022/05/23 05:33:43;;;;;;;7.57;4.00;;;;;;;18.96;47.53;100897.19;5073666;28;20059;-61
2022/05/23 05:36:19;;;;;;;7.03;3.67;;;;;;;19.14;46.81;100899.03;5075151;28;20052;-60
2022/05/23 05:38:55;;;;;;;5.22;3.47;;;;;;;19.24;46.19;100895.13;5075390;28;20056;-60
2022/05/23 05:41:32;;;;;;;8.27;3.22;;;;;;;19.36;45.67;100899.88;5067586;28;20524;-60
2022/05/23 05:44:10;;;;;;;5.28;3.63;;;;;;;19.49;45.44;100890.56;5056038;28;20057;-60
2022/05/23 05:46:41;;;;;;;4.47;3.20;;;;;;;19.68;45.23;100889.78;5068761;28;20523;-61
2022/05/23 05:49:23;;;;;;;4.22;3.00;;;;;;;19.77;44.74;100894.63;5076244;28;20051;-61
2022/05/23 05:51:56;;;;;;;5.40;2.75;;;;;;;19.86;45.10;100883.75;5076787;28;20075;-61
2022/05/23 05:54:33;;;;;;;5.47;3.25;;;;;;;19.95;44.82;100888.59;5076136;28;20064;-60
2022/05/23 05:57:11;;;;;;;3.80;2.85;;;;;;;20.06;44.56;100886.31;5094265;28;20044;-61
2022/05/23 05:59:38;;;;;;;5.95;3.28;;;;;;;20.21;44.27;100894.44;5097000;28;20460;-60
2022/05/23 06:02:17;;;;;;;7.80;3.95;;;;;;;20.30;43.76;100894.06;5097213;28;20067;-61
2022/05/23 06:04:47;;;;;;;6.47;3.63;;;;;;;20.41;43.19;100894.44;5096312;28;20070;-61
2022/05/23 06:12:52;;;;;;;6.75;3.55;;;;;;;20.38;43.13;100894.53;5075371;28;20133;-60
2022/05/23 06:15:18;;;;;;;6.43;3.50;;;;;;;20.36;43.19;100896.41;5058675;28;20135;-61
2022/05/23 06:17:50;;;;;;;7.35;3.45;;;;;;;20.49;42.92;100900.19;5061233;28;20057;-60
2022/05/23 06:20:23;;;;;;;8.20;2.80;;;;;;;20.61;42.61;100904.03;5069862;28;20062;-60
2022/05/23 06:22:53;;;;;;;7.53;4.22;;;;;;;20.68;42.47;100908.06;5053680;28;20640;-58
2022/05/23 06:25:23;;;;;;;7.15;4.85;;;;;;;20.66;42.10;100908.16;5062943;28;20418;-58
2022/05/23 06:27:53;;;;;;;6.35;4.00;;;;;;;20.55;42.34;100910.44;5061070;28;20057;-59
2022/05/23 06:30:22;;;;;;;6.47;3.10;;;;;;;20.60;42.24;100908.44;5059211;28;20554;-60
2022/05/23 06:32:51;;;;;;;7.43;3.50;;;;;;;20.74;42.02;100911.28;5065183;28;20049;-59
2022/05/23 06:35:37;;;;;;;7.78;3.88;;;;;;;20.85;41.19;100915.19;5064784;28;20128;-60
2022/05/23 06:38:06;;;;;;;6.47;3.35;;;;;;;20.94;41.47;100912.97;5051724;28;20138;-60
2022/05/23 06:40:36;;;;;;;9.18;3.47;;;;;;;21.04;41.04;100923.91;5067539;28;20076;-59
2022/05/23 06:43:05;;;;;;;7.40;3.75;;;;;;;21.02;40.86;100913.44;5055559;28;20048;-59
2022/05/23 06:45:35;;;;;;;6.38;3.15;;;;;;;21.13;40.31;100923.47;5063137;28;20049;-59
2022/05/23 06:48:09;;;;;;;7.72;3.22;;;;;;;21.16;39.70;100923.31;5029514;28;20114;-59
2022/05/23 06:50:37;;;;;;;5.97;3.13;;;;;;;21.19;39.72;100925.78;5047215;28;20582;-60
2022/05/23 06:53:04;;;;;;;7.80;3.63;;;;;;;21.31;39.28;100922.56;5054014;28;20052;-60
2022/05/23 06:55:31;;;;;;;3.85;2.45;;;;;;;21.42;39.02;100920.28;5045847;28;20532;-59
2022/05/23 06:58:00;;;;;;;5.63;3.00;;;;;;;21.59;38.59;100923.84;5060729;28;20064;-63
2022/05/23 07:00:28;;;;;;;6.70;2.80;;;;;;;21.68;38.51;100923.38;5064621;28;20063;-63
2022/05/23 07:02:56;;;;;;;5.25;2.50;;;;;;;21.72;37.62;100927.56;5076341;28;20059;-63
2022/05/23 07:13:44;;;;;;;9.32;2.78;;;;;;;21.84;36.58;100932.19;5073429;28;20571;-63
2022/05/23 07:16:14;;;;;;;7.57;2.92;;;;;;;21.72;36.81;100927.56;5060006;28;20053;-63
2022/05/23 07:18:50;;;;;;;7.70;2.45;;;;;;;21.90;37.05;100923.97;5068877;28;20052;-63
2022/05/23 07:21:17;;;;;;;5.05;2.25;;;;;;;22.13;36.53;100922.78;5069766;28;20059;-63
2022/05/23 07:23:59;;;;;;;4.00;2.20;;;;;;;22.25;35.08;100918.63;5062438;28;20064;-62
2022/05/23 07:26:37;;;;;;;9.98;2.70;;;;;;;22.27;36.03;100914.97;5052378;28;20064;-63
2022/05/23 07:29:13;;;;;;;7.35;2.92;;;;;;;22.42;35.79;100921.25;5066261;28;20045;-62
2022/05/23 07:31:40;;;;;;;4.85;2.70;;;;;;;22.56;35.88;100921.34;5053824;28;20383;-63
2022/05/23 07:34:08;;;;;;;5.53;2.75;;;;;;;22.78;35.58;100920.13;5066800;28;20076;-59
2022/05/23 07:36:40;;;;;;;3.42;2.35;;;;;;;22.94;35.47;100921.03;5074262;28;20127;-61
2022/05/23 07:39:15;;;;;;;5.00;2.78;;;;;;;23.14;35.07;100918.09;5057776;28;20741;-63
2022/05/23 07:41:45;;;;;;;6.95;2.65;;;;;;;23.27;34.98;100908.50;5070969;28;20045;-63
2022/05/23 07:44:15;;;;;;;4.60;2.70;;;;;;;23.40;34.62;100910.41;5059102;28;20144;-61
2022/05/23 07:46:44;;;;;;;4.25;2.58;;;;;;;23.48;34.38;100910.84;5069150;28;20049;-63
2022/05/23 07:49:11;;;;;;;5.60;2.72;;;;;;;23.56;34.25;100905.97;5057906;28;20048;-61
2022/05/23 07:51:41;;;;;;;4.82;2.20;;;;;;;23.52;34.11;100907.06;5063540;28;20457;-61
2022/05/23 08:02:27;;;;;;;4.80;2.50;;;;;;;23.49;34.51;100907.25;5059917;28;19936;-61
2022/05/23 08:04:58;;;;;;;3.60;2.42;;;;;;;23.56;34.16;100903.34;5069627;28;20373;-63
2022/05/23 08:07:35;;;;;;;5.22;2.88;;;;;;;23.60;33.37;100904.84;5061581;28;20360;-60
2022/05/23 08:10:17;;;;;;;10.65;2.92;;;;;;;23.60;33.33;100908.34;5069476;28;20135;-62
2022/05/23 08:12:50;;;;;;;4.68;3.30;;;;;;;23.73;33.91;100908.44;5057974;28;20040;-61
2022/05/23 08:15:19;;;;;;;3.95;2.55;;;;;;;23.92;33.41;100906.38;5058072;28;20508;-61
2022/05/23 08:17:48;;;;;;;11.65;2.97;;;;;;;24.02;33.31;100896.09;5062064;28;20564;-62
2022/05/23 08:20:16;;;;;;;8.00;3.22;;;;;;;24.09;33.11;100893.94;5060441;28;20526;-62
2022/05/23 08:22:51;;;;;;;6.90;2.65;;;;;;;24.19;33.08;100895.06;5065316;28;20048;-63
2022/05/23 08:25:21;;;;;;;7.13;3.80;;;;;;;24.35;32.64;100893.16;5063596;28;20132;-62
2022/05/23 08:27:50;;;;;;;6.05;3.28;;;;;;;24.42;32.22;100894.47;5063249;28;20075;-61
2022/05/23 08:30:21;;;;;;;6.82;3.63;;;;;;;24.37;32.42;100896.56;5059967;28;20136;-61
2022/05/23 08:32:58;;;;;;;9.07;2.95;;;;;;;24.23;32.86;100900.06;5072376;28;20143;-62
2022/05/23 08:35:27;;;;;;;7.30;2.95;;;;;;;24.08;32.68;100889.56;5062226;28;20048;-60
2022/05/23 08:37:56;;;;;;;5.00;3.00;;;;;;;23.94;33.03;100892.22;5069189;28;20117;-61
2022/05/23 08:40:53;;;;;;;6.90;2.63;;;;;;;23.98;33.11;100883.16;5072531;28;20049;-58
2022/05/23 08:43:32;;;;;;;7.93;2.72;;;;;;;24.10;33.21;100893.84;5055188;28;20082;-60
2022/05/23 08:46:02;;;;;;;6.55;3.10;;;;;;;24.26;32.96;100890.22;5062619;28;20048;-59
2022/05/23 08:48:45;;;;;;;5.43;3.00;;;;;;;24.29;33.08;100898.00;5059313;28;20059;-58
2022/05/23 08:51:17;;;;;;;5.35;2.85;;;;;;;24.27;32.98;100890.16;5066177;28;20167;-59
2022/05/23 08:53:54;;;;;;;11.38;3.20;;;;;;;24.20;32.11;100889.66;5064469;28;20384;-58
2022/05/23 08:56:39;;;;;;;6.32;2.83;;;;;;;24.07;32.94;100891.38;5078043;28;20078;-59
2022/05/23 08:59:26;;;;;;;11.77;3.78;;;;;;;23.96;32.45;100880.59;5056600;28;20049;-59
2022/05/23 09:02:01;;;;;;;5.05;2.85;;;;;;;23.80;32.95;100875.38;5065951;28;20056;-60
2022/05/23 09:04:42;;;;;;;5.70;3.35;;;;;;;23.83;32.79;100875.19;5057334;28;20064;-58
2022/05/23 09:07:21;;;;;;;6.85;2.80;;;;;;;23.86;33.42;100867.06;5067311;28;20550;-60
2022/05/23 09:09:50;;;;;;;5.55;3.10;;;;;;;23.93;33.24;100864.88;5061917;28;20119;-60
2022/05/23 09:12:21;;;;;;;4.65;3.15;;;;;;;23.86;32.58;100861.75;5064700;28;20037;-60
2022/05/23 09:14:56;;;;;;;6.88;3.38;;;;;;;23.66;32.59;100850.69;5065663;28;20049;-61
2022/05/23 09:17:28;;;;;;;8.32;3.13;;;;;;;23.49;33.21;100851.69;5061074;28;20477;-58
2022/05/23 09:20:01;;;;;;;4.85;2.72;;;;;;;23.44;33.35;100857.25;5063836;28;20053;-59
2022/05/23 09:22:38;;;;;;;7.75;2.60;;;;;;;23.43;32.82;100855.56;5070588;28;20051;-59
2022/05/23 09:25:16;;;;;;;6.28;2.60;;;;;;;23.23;33.20;100854.09;5062552;28;20055;-59
2022/05/23 09:27:52;;;;;;;4.88;2.70;;;;;;;23.01;33.30;100853.63;5067294;28;20385;-59
2022/05/23 09:30:30;;;;;;;8.18;2.60;;;;;;;22.93;33.72;100850.59;5054385;28;20084;-60
2022/05/23 09:33:09;;;;;;;8.30;2.72;;;;;;;22.93;33.79;100853.25;5054554;28;20662;-59
2022/05/23 09:36:01;;;;;;;9.40;2.40;;;;;;;22.82;33.58;100855.63;5056203;28;20053;-59
2022/05/23 09:38:37;;;;;;;8.25;2.55;;;;;;;22.74;34.53;100849.88;5069763;28;20049;-58
2022/05/23 09:41:05;;;;;;;6.05;2.22;;;;;;;22.69;34.08;100858.09;5058164;28;20045;-60
2022/05/23 09:49:30;;;;;;;4.38;2.00;;;;;;;22.44;34.67;100842.78;5057905;28;20048;-58
2022/05/23 09:52:04;;;;;;;3.03;2.30;;;;;;;22.33;34.50;100830.13;5053589;28;20087;-61
2022/05/23 09:54:40;;;;;;;6.78;1.75;;;;;;;22.34;35.01;100841.56;5054196;28;20056;-61
2022/05/23 09:57:24;;;;;;;2.28;1.70;;;;;;;22.33;34.41;100831.94;5078698;28;20049;-61
2022/05/23 10:00:06;;;;;;;3.53;1.73;;;;;;;22.29;34.37;100828.59;5068217;28;20056;-61
2022/05/23 10:02:40;;;;;;;3.80;1.73;;;;;;;22.23;34.40;100834.22;5070295;28;20780;-59
2022/05/23 10:05:26;;;;;;;4.68;1.50;;;;;;;22.08;33.74;100828.94;5057799;28;20052;-60
2022/05/23 10:08:02;;;;;;;4.15;1.90;;;;;;;21.77;34.58;100835.81;5061196;28;20381;-59
2022/05/23 10:10:33;;;;;;;8.10;1.90;;;;;;;21.59;34.97;100836.78;5068374;28;20075;-63
2022/05/23 10:13:25;;;;;;;5.63;1.40;;;;;;;21.45;35.43;100836.66;5054389;28;20055;-63
2022/05/23 10:16:00;;;;;;;6.25;1.90;;;;;;;21.38;35.24;100826.44;5064306;28;20121;-60
2022/05/23 10:18:30;;;;;;;16.90;1.60;;;;;;;21.17;35.39;100829.25;5060678;28;20227;-60
2022/05/23 10:21:00;;;;;;;7.82;1.77;;;;;;;21.09;36.15;100827.03;5059534;28;20056;-61
2022/05/23 10:23:33;;;;;;;3.20;1.48;;;;;;;21.16;36.15;100828.41;5066064;28;20060;-60
2022/05/23 10:26:08;;;;;;;2.60;1.40;;;;;;;21.11;36.23;100825.16;5064936;28;20110;-59
2022/05/23 10:28:44;;;;;;;;;;;;;;;21.07;36.98;100818.34;5073407;28;20524;-60
2022/05/23 10:31:23;;;;;;;4.75;1.60;;;;;;;21.09;36.12;100827.03;5058071;28;19927;-59
2022/05/23 10:34:00;;;;;;;5.28;1.52;;;;;;;21.07;36.24;100818.34;5065106;28;20416;-60
2022/05/23 10:36:31;;;;;;;1.83;1.15;;;;;;;21.21;36.52;100829.03;5055711;28;20630;-61
2022/05/23 10:42:17;;;;;;;6.22;1.45;;;;;;;21.36;36.73;100824.81;5071390;28;20047;-59
2022/05/23 10:45:02;;;;;;;5.72;1.70;;;;;;;21.33;36.40;100815.28;5056351;28;20053;-59
2022/05/23 10:48:07;;;;;;;6.60;1.55;;;;;;;21.34;35.55;100819.63;5065010;28;20139;-60
2022/05/23 10:50:41;;;;;;;4.60;1.50;;;;;;;21.03;36.65;100811.53;5061668;28;20045;-59
2022/05/23 10:53:18;;;;;;;3.75;1.55;;;;;;;20.85;37.08;100815.94;5059946;28;20045;-60
2022/05/23 10:55:57;;;;;;;4.18;1.65;;;;;;;20.83;37.54;100815.16;5070050;28;20056;-61
2022/05/23 10:58:43;;;;;;;2.60;1.42;;;;;;;20.86;37.20;100808.88;5077991;28;20052;-61
2022/05/23 11:01:23;;;;;;;3.67;1.33;;;;;;;20.91;37.59;100806.88;5058034;28;20040;-59
2022/05/23 11:04:16;;;;;;;3.22;1.65;;;;;;;20.99;37.51;100802.06;5062933;28;20037;-60
2022/05/23 11:07:04;;;;;;;3.53;1.75;;;;;;;21.07;37.29;100807.81;5066540;28;20045;-59
2022/05/23 11:09:43;;;;;;;3.88;1.38;;;;;;;21.05;37.24;100799.13;5067589;28;20044;-61
2022/05/23 11:12:24;;;;;;;5.07;1.70;;;;;;;21.01;36.97;100802.84;5065998;28;20106;-60
2022/05/23 11:15:08;;;;;;;3.78;1.52;;;;;;;20.94;36.86;100799.66;5054131;28;20496;-60
2022/05/23 11:17:47;;;;;;;2.40;1.30;;;;;;;20.76;37.53;100793.50;5063002;28;20493;-60
2022/05/23 11:20:26;;;;;;;5.82;1.80;;;;;;;20.78;37.67;100791.66;5056234;28;20057;-60
2022/05/23 11:23:02;;;;;;;5.90;1.85;;;;;;;20.85;37.68;100791.38;5055272;28;20041;-60
2022/05/23 11:25:35;;;;;;;4.90;1.98;;;;;;;20.82;37.39;100788.88;5069729;28;20056;-59
2022/05/23 11:33:51;;;;;;;4.47;1.67;;;;;;;20.63;38.26;100787.13;5050984;28;20086;-59
2022/05/23 11:36:44;;;;;;;3.75;1.70;;;;;;;20.62;37.52;100790.72;5052764;28;20064;-60
2022/05/23 11:39:44;;;;;;;3.80;1.60;;;;;;;20.56;38.13;100784.88;5056230;28;20127;-61
2022/05/23 11:42:14;;;;;;;3.90;1.35;;;;;;;20.47;38.68;100780.94;5069721;28;20049;-59
2022/05/23 11:48:02;;;;;;;6.78;1.55;;;;;;;20.42;38.70;100782.94;5060225;28;20052;-60
2022/05/23 11:50:32;;;;;;;5.00;1.83;;;;;;;20.42;38.46;100788.19;5061156;28;20147;-60
2022/05/23 11:53:19;;;;;;;3.70;1.55;;;;;;;20.25;38.80;100785.47;5057901;28;20067;-60
2022/05/23 11:56:07;;;;;;;5.95;1.83;;;;;;;20.11;39.21;100786.13;5067484;28;20056;-60
2022/05/23 11:58:50;;;;;;;4.43;1.75;;;;;;;20.08;39.45;100786.25;5067046;28;20068;-61
2022/05/23 12:01:46;;;;;;;3.13;2.10;;;;;;;19.89;39.54;100781.00;5056693;28;20106;-62
2022/05/23 12:04:22;;;;;;;7.45;2.17;;;;;;;19.71;39.74;100779.19;5068672;28;20052;-61
2022/05/23 12:06:51;;;;;;;4.35;1.92;;;;;;;19.68;40.25;100781.97;5059252;28;20490;-61
2022/05/23 12:09:33;;;;;;;14.07;2.13;;;;;;;19.61;40.30;100776.13;5065581;28;20379;-60
2022/05/23 12:12:51;;;;;;;2.42;1.42;;;;;;;19.53;40.39;100773.00;5067990;28;20049;-62
2022/05/23 12:15:56;;;;;;;20.42;2.50;;;;;;;19.53;40.53;100776.47;5068878;28;20059;-57
2022/05/23 12:18:39;;;;;;;6.13;1.38;;;;;;;19.62;40.44;100771.72;5071117;28;20056;-59
2022/05/23 12:21:38;;;;;;;5.90;1.75;;;;;;;19.70;40.34;100772.22;5059101;28;20052;-58
2022/05/23 12:24:25;;;;;;;7.40;1.77;;;;;;;19.81;40.14;100770.84;5063573;28;20441;-59
2022/05/23 12:27:01;;;;;;;4.18;2.00;;;;;;;19.78;40.27;100760.47;5063719;28;20049;-59
2022/05/23 12:29:34;;;;;;;3.45;1.45;;;;;;;19.64;40.13;100762.00;5058810;28;20091;-59
2022/05/23 12:32:20;;;;;;;3.75;1.88;;;;;;;19.48;40.38;100752.13;5067130;28;20048;-62
2022/05/23 12:34:53;;;;;;;4.72;1.65;;;;;;;19.46;40.71;100769.75;5057493;28;20132;-60
2022/05/23 12:37:27;;;;;;;5.30;1.70;;;;;;;19.44;40.98;100757.59;5061689;28;20416;-57
2022/05/23 12:40:14;;;;;;;4.65;1.90;;;;;;;19.43;40.53;100748.88;5064425;28;20468;-60
2022/05/23 12:43:30;;;;;;;5.45;1.90;;;;;;;19.40;40.64;100743.75;5058665;28;20045;-61
2022/05/23 12:46:14;;;;;;;3.03;1.70;;;;;;;19.42;40.79;100752.41;5063923;28;20144;-61
2022/05/23 12:49:05;;;;;;;3.95;1.83;;;;;;;19.48;40.24;100746.88;5069261;28;20432;-62
2022/05/23 12:51:43;;;;;;;3.42;1.52;;;;;;;19.48;40.35;100741.63;5067815;28;20053;-59
2022/05/23 12:54:25;;;;;;;3.50;1.90;;;;;;;19.38;40.46;100735.06;5069668;28;20053;-62
2022/05/23 12:57:39;;;;;;;2.10;1.42;;;;;;;19.27;40.79;100736.47;5086389;28;20456;-62
2022/05/23 13:00:17;;;;;;;6.13;1.80;;;;;;;19.25;40.79;100733.91;5062113;28;20107;-60
2022/05/23 13:03:01;;;;;;;4.00;1.30;;;;;;;19.29;40.65;100735.50;5072247;28;20052;-61